createdAt,value
2018-02-14T00:00:26.983Z,24.70
2018-02-14T00:01:26.949Z,24.71
2018-02-14T00:02:26.914Z,24.61
2018-02-14T00:03:26.882Z,24.61
2018-02-14T00:04:26.847Z,24.59
2018-02-14T00:05:26.813Z,24.53
2018-02-14T00:06:26.780Z,24.46
2018-02-14T00:07:26.762Z,24.45
2018-02-14T00:08:26.714Z,24.44
2018-02-14T00:09:26.680Z,24.46
2018-02-14T00:10:26.644Z,24.53
2018-02-14T00:11:26.610Z,24.41
2018-02-14T00:12:26.579Z,24.42
2018-02-14T00:13:26.544Z,24.31
2018-02-14T00:14:26.513Z,24.44
2018-02-14T00:15:26.475Z,24.46
2018-02-14T00:16:26.440Z,24.31
2018-02-14T00:17:26.410Z,24.30
2018-02-14T00:18:26.369Z,24.34
2018-02-14T00:19:26.357Z,24.37
2018-02-14T00:20:26.301Z,24.26
2018-02-14T00:21:26.268Z,24.31
2018-02-14T00:22:26.237Z,24.19
2018-02-14T00:23:26.197Z,24.27
2018-02-14T00:24:26.171Z,24.23
2018-02-14T00:25:26.131Z,24.33
2018-02-14T00:26:26.098Z,24.19
2018-02-14T00:27:26.066Z,24.27
2018-02-14T00:28:26.025Z,24.23
2018-02-14T00:29:26.001Z,24.18
2018-02-14T00:30:25.962Z,24.18
2018-02-14T00:31:25.927Z,24.23
2018-02-14T00:32:25.898Z,24.05
2018-02-14T00:33:25.861Z,24.04
2018-02-14T00:34:25.829Z,24.12
2018-02-14T00:35:25.794Z,24.14
2018-02-14T00:36:25.765Z,24.16
2018-02-14T00:37:25.731Z,24.15
2018-02-14T00:38:25.694Z,24.11
2018-02-14T00:39:25.656Z,24.11
2018-02-14T00:40:25.614Z,24.08
2018-02-14T00:41:25.597Z,23.96
2018-02-14T00:42:25.550Z,24.06
2018-02-14T00:43:25.522Z,24.12
2018-02-14T00:44:25.488Z,23.94
2018-02-14T00:45:25.447Z,23.99
2018-02-14T00:46:25.428Z,23.87
2018-02-14T00:47:25.385Z,23.92
2018-02-14T00:48:25.355Z,23.92
2018-02-14T00:49:25.323Z,23.74
2018-02-14T00:50:25.283Z,23.71
2018-02-14T00:51:25.249Z,23.77
2018-02-14T00:52:25.212Z,23.71
2018-02-14T00:53:25.176Z,23.79
2018-02-14T00:54:25.148Z,23.81
2018-02-14T00:55:25.114Z,23.74
2018-02-14T00:56:25.082Z,23.72
2018-02-14T00:57:25.043Z,23.81
2018-02-14T00:58:25.011Z,23.71
2018-02-14T00:59:24.974Z,23.67
2018-02-14T01:00:24.962Z,23.64
2018-02-14T01:01:24.905Z,23.78
2018-02-14T01:02:24.870Z,23.81
2018-02-14T01:03:24.846Z,23.57
2018-02-14T01:04:24.801Z,23.63
2018-02-14T01:05:24.768Z,23.64
2018-02-14T01:06:24.749Z,23.56
2018-02-14T01:07:24.704Z,23.63
2018-02-14T01:08:24.669Z,23.67
2018-02-14T01:09:24.631Z,23.60
2018-02-14T01:10:24.606Z,23.57
2018-02-14T01:11:24.563Z,23.54
2018-02-14T01:12:24.533Z,23.53
2018-02-14T01:13:24.497Z,23.59
2018-02-14T01:14:24.473Z,23.57
2018-02-14T01:15:24.426Z,23.56
2018-02-14T01:16:24.398Z,23.49
2018-02-14T01:17:24.362Z,23.47
2018-02-14T01:18:24.326Z,23.41
2018-02-14T01:19:24.296Z,23.50
2018-02-14T01:20:24.257Z,23.38
2018-02-14T01:21:24.227Z,23.44
2018-02-14T01:22:24.189Z,23.35
2018-02-14T01:23:24.157Z,23.26
2018-02-14T01:24:24.122Z,23.35
2018-02-14T01:25:24.089Z,23.26
2018-02-14T01:26:24.057Z,23.37
2018-02-14T01:27:24.018Z,23.23
2018-02-14T01:28:23.986Z,23.14
2018-02-14T01:29:23.953Z,23.14
2018-02-14T01:30:23.933Z,23.14
2018-02-14T01:31:23.885Z,23.15
2018-02-14T01:32:23.850Z,23.15
2018-02-14T01:33:23.812Z,23.09
2018-02-14T01:34:23.777Z,23.11
2018-02-14T01:35:23.749Z,22.99
2018-02-14T01:36:23.717Z,23.12
2018-02-14T01:37:23.678Z,22.88
2018-02-14T01:38:23.642Z,22.99
2018-02-14T01:39:23.610Z,22.89
2018-02-14T01:40:23.578Z,22.86
2018-02-14T01:41:23.558Z,22.85
2018-02-14T01:42:23.522Z,22.85
2018-02-14T01:43:23.468Z,22.82
2018-02-14T01:44:23.440Z,22.78
2018-02-14T01:45:23.403Z,22.75
2018-02-14T01:46:23.374Z,22.76
2018-02-14T01:47:23.340Z,22.75
2018-02-14T01:48:23.304Z,22.72
2018-02-14T01:49:23.264Z,22.63
2018-02-14T01:50:23.238Z,22.61
2018-02-14T01:51:23.199Z,22.69
2018-02-14T01:52:23.163Z,22.76
2018-02-14T01:53:23.126Z,22.66
2018-02-14T01:54:23.090Z,22.57
2018-02-14T01:55:23.062Z,22.60
2018-02-14T01:56:23.026Z,22.59
2018-02-14T01:57:22.994Z,22.54
2018-02-14T01:58:22.958Z,22.54
2018-02-14T01:59:22.917Z,22.63
2018-02-14T02:00:22.884Z,22.59
2018-02-14T02:01:22.852Z,22.52
2018-02-14T02:02:22.824Z,22.42
2018-02-14T02:03:22.784Z,22.42
2018-02-14T02:04:22.748Z,22.48
2018-02-14T02:05:22.720Z,22.41
2018-02-14T02:06:22.681Z,22.46
2018-02-14T02:07:22.649Z,22.39
2018-02-14T02:08:22.611Z,22.44
2018-02-14T02:09:22.572Z,22.39
2018-02-14T02:10:22.542Z,22.29
2018-02-14T02:11:22.507Z,22.24
2018-02-14T02:12:22.473Z,22.35
2018-02-14T02:13:22.439Z,22.31
2018-02-14T02:14:22.410Z,22.21
2018-02-14T02:15:22.371Z,22.20
2018-02-14T02:16:22.332Z,22.24
2018-02-14T02:17:22.318Z,22.09
2018-02-14T02:18:22.270Z,22.19
2018-02-14T02:19:22.231Z,22.24
2018-02-14T02:20:22.214Z,22.08
2018-02-14T02:21:22.158Z,22.20
2018-02-14T02:22:22.127Z,22.15
2018-02-14T02:23:22.096Z,22.11
2018-02-14T02:24:22.062Z,22.09
2018-02-14T02:25:22.027Z,22.11
2018-02-14T02:26:21.996Z,21.98
2018-02-14T02:27:21.960Z,21.94
2018-02-14T02:28:21.921Z,22.09
2018-02-14T02:29:21.890Z,22.09
2018-02-14T02:30:21.855Z,21.98
2018-02-14T02:31:21.816Z,22.06
2018-02-14T02:32:21.784Z,21.99
2018-02-14T02:33:21.749Z,21.90
2018-02-14T02:34:21.719Z,21.83
2018-02-14T02:35:21.683Z,21.83
2018-02-14T02:36:21.651Z,21.82
2018-02-14T02:37:21.615Z,21.96
2018-02-14T02:38:21.614Z,21.83
2018-02-14T02:39:21.544Z,21.79
2018-02-14T02:40:21.511Z,21.73
2018-02-14T02:41:21.472Z,21.70
2018-02-14T02:42:21.446Z,21.64
2018-02-14T02:43:21.403Z,21.81
2018-02-14T02:44:21.371Z,21.73
2018-02-14T02:45:21.344Z,21.81
2018-02-14T02:46:21.304Z,21.83
2018-02-14T02:47:21.269Z,21.71
2018-02-14T02:48:21.233Z,21.74
2018-02-14T02:49:21.201Z,21.71
2018-02-14T02:50:21.169Z,21.64
2018-02-14T02:51:21.149Z,21.61
2018-02-14T02:52:21.099Z,21.59
2018-02-14T02:53:21.062Z,21.73
2018-02-14T02:54:21.036Z,21.58
2018-02-14T02:55:20.996Z,21.66
2018-02-14T02:56:20.961Z,21.59
2018-02-14T02:57:20.926Z,21.56
2018-02-14T02:58:20.890Z,21.58
2018-02-14T02:59:20.859Z,21.59
2018-02-14T03:00:20.824Z,21.51
2018-02-14T03:01:20.787Z,21.38
2018-02-14T03:02:20.754Z,21.42
2018-02-14T03:03:20.719Z,21.43
2018-02-14T03:04:20.688Z,21.52
2018-02-14T03:05:20.651Z,21.38
2018-02-14T03:06:20.615Z,21.30
2018-02-14T03:07:20.582Z,21.27
2018-02-14T03:08:20.551Z,21.33
2018-02-14T03:09:20.515Z,21.31
2018-02-14T03:10:20.480Z,21.28
2018-02-14T03:11:20.442Z,21.24
2018-02-14T03:12:20.415Z,21.40
2018-02-14T03:13:20.375Z,21.26
2018-02-14T03:14:20.342Z,21.16
2018-02-14T03:15:20.311Z,21.13
2018-02-14T03:16:20.267Z,21.19
2018-02-14T03:17:20.242Z,21.22
2018-02-14T03:18:20.202Z,21.19
2018-02-14T03:19:20.168Z,21.21
2018-02-14T03:20:20.135Z,21.26
2018-02-14T03:21:20.098Z,21.22
2018-02-14T03:22:20.077Z,21.18
2018-02-14T03:23:20.030Z,21.13
2018-02-14T03:24:19.995Z,21.12
2018-02-14T03:25:19.986Z,21.13
2018-02-14T03:26:19.926Z,21.11
2018-02-14T03:27:19.891Z,21.00
2018-02-14T03:28:19.860Z,21.05
2018-02-14T03:29:19.824Z,21.01
2018-02-14T03:30:19.793Z,21.01
2018-02-14T03:31:19.761Z,21.01
2018-02-14T03:32:19.721Z,20.87
2018-02-14T03:33:19.684Z,20.90
2018-02-14T03:34:19.644Z,20.87
2018-02-14T03:35:19.613Z,20.82
2018-02-14T03:36:19.582Z,20.90
2018-02-14T03:37:19.540Z,20.91
2018-02-14T03:38:19.513Z,20.83
2018-02-14T03:39:19.473Z,20.78
2018-02-14T03:40:19.441Z,20.78
2018-02-14T03:41:19.405Z,20.76
2018-02-14T03:42:19.366Z,20.71
2018-02-14T03:43:19.336Z,20.72
2018-02-14T03:44:19.305Z,20.69
2018-02-14T03:45:19.266Z,20.61
2018-02-14T03:46:19.235Z,20.58
2018-02-14T03:47:19.192Z,20.61
2018-02-14T03:48:19.162Z,20.44
2018-02-14T03:49:19.127Z,20.48
2018-02-14T03:50:19.085Z,20.51
2018-02-14T03:51:19.056Z,20.46
2018-02-14T03:52:19.019Z,20.38
2018-02-14T03:53:18.987Z,20.38
2018-02-14T03:54:18.959Z,20.54
2018-02-14T03:55:18.915Z,20.48
2018-02-14T03:56:18.880Z,20.40
2018-02-14T03:57:18.841Z,20.48
2018-02-14T03:58:18.805Z,20.33
2018-02-14T03:59:18.778Z,20.31
2018-02-14T04:00:18.742Z,20.33
2018-02-14T04:01:18.708Z,20.30
2018-02-14T04:02:18.678Z,20.37
2018-02-14T04:03:18.637Z,20.35
2018-02-14T04:04:18.598Z,20.31
2018-02-14T04:05:18.564Z,20.27
2018-02-14T04:06:18.532Z,20.22
2018-02-14T04:07:18.497Z,20.26
2018-02-14T04:08:18.463Z,20.23
2018-02-14T04:09:18.426Z,20.16
2018-02-14T04:10:18.393Z,20.19
2018-02-14T04:11:18.362Z,20.16
2018-02-14T04:12:18.319Z,20.17
2018-02-14T04:13:18.286Z,20.13
2018-02-14T04:14:18.252Z,20.15
2018-02-14T04:15:18.219Z,19.98
2018-02-14T04:16:18.181Z,19.95
2018-02-14T04:17:18.145Z,19.94
2018-02-14T04:18:18.123Z,19.98
2018-02-14T04:19:18.076Z,20.02
2018-02-14T04:20:18.044Z,19.95
2018-02-14T04:21:18.006Z,19.82
2018-02-14T04:22:17.972Z,19.95
2018-02-14T04:23:17.937Z,19.76
2018-02-14T04:24:17.904Z,19.78
2018-02-14T04:25:17.876Z,19.90
2018-02-14T04:26:17.828Z,19.75
2018-02-14T04:27:17.798Z,19.75
2018-02-14T04:28:17.777Z,19.76
2018-02-14T04:29:17.726Z,19.82
2018-02-14T04:30:17.691Z,19.82
2018-02-14T04:31:17.665Z,19.71
2018-02-14T04:32:17.620Z,19.67
2018-02-14T04:33:17.591Z,19.79
2018-02-14T04:34:17.554Z,19.70
2018-02-14T04:35:17.519Z,19.67
2018-02-14T04:36:17.480Z,19.62
2018-02-14T04:37:17.453Z,19.72
2018-02-14T04:38:17.436Z,19.65
2018-02-14T04:39:17.383Z,19.61
2018-02-14T04:40:17.345Z,19.62
2018-02-14T04:41:17.311Z,19.60
2018-02-14T04:42:17.275Z,19.65
2018-02-14T04:43:17.233Z,19.57
2018-02-14T04:44:17.227Z,19.61
2018-02-14T04:45:17.166Z,19.60
2018-02-14T04:46:17.130Z,19.61
2018-02-14T04:47:17.099Z,19.61
2018-02-14T04:48:17.065Z,19.57
2018-02-14T04:49:17.037Z,19.46
2018-02-14T04:50:16.994Z,19.50
2018-02-14T04:51:16.963Z,19.49
2018-02-14T04:52:16.925Z,19.50
2018-02-14T04:53:16.887Z,19.47
2018-02-14T04:54:16.856Z,19.49
2018-02-14T04:55:16.820Z,19.47
2018-02-14T04:56:16.789Z,19.45
2018-02-14T04:57:16.754Z,19.32
2018-02-14T04:58:16.716Z,19.31
2018-02-14T04:59:16.681Z,19.31
2018-02-14T05:00:16.651Z,19.32
2018-02-14T05:01:16.630Z,19.38
2018-02-14T05:02:16.577Z,19.30
2018-02-14T05:03:16.544Z,19.30
2018-02-14T05:04:16.508Z,19.15
2018-02-14T05:05:16.471Z,19.27
2018-02-14T05:06:16.439Z,19.38
2018-02-14T05:07:16.405Z,19.16
2018-02-14T05:08:16.368Z,19.27
2018-02-14T05:09:16.338Z,19.23
2018-02-14T05:10:16.309Z,19.16
2018-02-14T05:11:16.265Z,19.17
2018-02-14T05:12:16.229Z,19.10
2018-02-14T05:13:16.194Z,19.16
2018-02-14T05:14:16.164Z,19.13
2018-02-14T05:15:16.123Z,19.09
2018-02-14T05:16:16.095Z,19.16
2018-02-14T05:17:16.054Z,19.15
2018-02-14T05:18:16.025Z,19.10
2018-02-14T05:19:15.992Z,19.09
2018-02-14T05:20:15.952Z,19.01
2018-02-14T05:21:15.919Z,19.06
2018-02-14T05:22:15.885Z,18.94
2018-02-14T05:23:15.851Z,18.91
2018-02-14T05:24:15.810Z,18.97
2018-02-14T05:25:15.776Z,18.91
2018-02-14T05:26:15.742Z,18.94
2018-02-14T05:27:15.704Z,18.89
2018-02-14T05:28:15.669Z,18.87
2018-02-14T05:29:15.641Z,18.87
2018-02-14T05:30:15.630Z,18.91
2018-02-14T05:31:15.576Z,18.87
2018-02-14T05:32:15.530Z,18.82
2018-02-14T05:33:15.497Z,18.83
2018-02-14T05:34:15.465Z,18.86
2018-02-14T05:35:15.440Z,18.78
2018-02-14T05:36:15.434Z,18.78
2018-02-14T05:37:15.359Z,18.75
2018-02-14T05:38:15.320Z,18.71
2018-02-14T05:39:15.289Z,18.69
2018-02-14T05:40:15.250Z,18.62
2018-02-14T05:41:15.214Z,18.64
2018-02-14T05:42:15.199Z,18.59
2018-02-14T05:43:15.145Z,18.60
2018-02-14T05:44:15.108Z,18.59
2018-02-14T05:45:15.078Z,18.57
2018-02-14T05:46:15.068Z,18.53
2018-02-14T05:47:15.004Z,18.59
2018-02-14T05:48:14.967Z,18.54
2018-02-14T05:49:14.934Z,18.47
2018-02-14T05:50:14.898Z,18.56
2018-02-14T05:51:14.864Z,18.51
2018-02-14T05:52:14.828Z,18.50
2018-02-14T05:53:14.806Z,18.39
2018-02-14T05:54:14.755Z,18.44
2018-02-14T05:55:14.727Z,18.38
2018-02-14T05:56:14.688Z,18.49
2018-02-14T05:57:14.652Z,18.46
2018-02-14T05:58:14.622Z,18.47
2018-02-14T05:59:14.584Z,18.34
2018-02-14T06:00:14.544Z,18.35
2018-02-14T06:01:14.515Z,18.38
2018-02-14T06:02:14.476Z,18.34
2018-02-14T06:03:14.442Z,18.21
2018-02-14T06:04:14.419Z,18.28
2018-02-14T06:05:14.373Z,18.23
2018-02-14T06:06:14.338Z,18.26
2018-02-14T06:07:14.305Z,18.16
2018-02-14T06:08:14.268Z,18.26
2018-02-14T06:09:14.246Z,18.25
2018-02-14T06:10:14.196Z,18.17
2018-02-14T06:11:14.160Z,18.10
2018-02-14T06:12:14.163Z,18.17
2018-02-14T06:13:14.088Z,18.10
2018-02-14T06:14:14.052Z,18.14
2018-02-14T06:15:14.017Z,18.14
2018-02-14T06:16:13.982Z,18.04
2018-02-14T06:17:13.964Z,18.10
2018-02-14T06:18:13.914Z,18.11
2018-02-14T06:19:13.898Z,18.13
2018-02-14T06:20:13.849Z,18.04
2018-02-14T06:21:13.822Z,18.04
2018-02-14T06:22:13.786Z,18.01
2018-02-14T06:23:13.736Z,18.04
2018-02-14T06:24:13.698Z,18.04
2018-02-14T06:25:13.660Z,18.11
2018-02-14T06:26:13.639Z,17.95
2018-02-14T06:27:13.597Z,17.86
2018-02-14T06:28:13.561Z,17.91
2018-02-14T06:29:13.525Z,17.95
2018-02-14T06:30:13.482Z,17.79
2018-02-14T06:31:13.455Z,17.79
2018-02-14T06:32:13.415Z,17.77
2018-02-14T06:33:13.380Z,17.73
2018-02-14T06:34:13.345Z,17.77
2018-02-14T06:35:13.309Z,17.79
2018-02-14T06:36:13.271Z,17.68
2018-02-14T06:37:13.235Z,17.70
2018-02-14T06:38:13.204Z,17.65
2018-02-14T06:39:13.167Z,17.79
2018-02-14T06:40:13.131Z,17.68
2018-02-14T06:41:13.098Z,17.57
2018-02-14T06:42:13.060Z,17.53
2018-02-14T06:43:13.029Z,17.60
2018-02-14T06:44:12.989Z,17.53
2018-02-14T06:45:12.951Z,17.66
2018-02-14T06:46:12.922Z,17.68
2018-02-14T06:47:12.881Z,17.86
2018-02-14T06:48:12.849Z,17.77
2018-02-14T06:49:12.811Z,18.01
2018-02-14T06:50:12.778Z,18.10
2018-02-14T06:51:12.755Z,20.75
2018-02-14T06:52:12.702Z,23.45
2018-02-14T06:53:12.668Z,26.03
2018-02-14T06:54:12.636Z,29.03
2018-02-14T06:55:12.601Z,31.74
2018-02-14T06:56:12.565Z,34.40
2018-02-14T06:57:12.525Z,36.11
2018-02-14T06:58:12.488Z,37.81
2018-02-14T06:59:12.454Z,39.48
2018-02-14T07:00:12.421Z,40.97
2018-02-14T07:01:12.380Z,42.50
2018-02-14T07:02:12.359Z,43.72
2018-02-14T07:03:12.310Z,44.84
2018-02-14T07:04:12.280Z,45.44
2018-02-14T07:05:12.251Z,46.27
2018-02-14T07:06:12.208Z,47.02
2018-02-14T07:07:12.169Z,47.76
2018-02-14T07:08:12.141Z,48.14
2018-02-14T07:09:12.100Z,48.36
2018-02-14T07:10:12.069Z,48.57
2018-02-14T07:11:12.033Z,48.33
2018-02-14T07:12:11.998Z,48.51
2018-02-14T07:13:11.976Z,48.51
2018-02-14T07:14:11.939Z,48.63
2018-02-14T07:15:11.894Z,48.69
2018-02-14T07:16:11.859Z,48.76
2018-02-14T07:17:11.820Z,49.11
2018-02-14T07:18:11.787Z,49.46
2018-02-14T07:19:11.765Z,49.73
2018-02-14T07:20:11.715Z,50.06
2018-02-14T07:21:11.677Z,50.35
2018-02-14T07:22:11.652Z,50.34
2018-02-14T07:23:11.608Z,50.14
2018-02-14T07:24:11.606Z,50.18
2018-02-14T07:25:11.540Z,50.48
2018-02-14T07:26:11.505Z,50.62
2018-02-14T07:27:11.476Z,50.43
2018-02-14T07:28:11.429Z,50.36
2018-02-14T07:29:11.431Z,50.43
2018-02-14T07:30:11.364Z,50.47
2018-02-14T07:31:11.325Z,50.66
2018-02-14T07:32:11.306Z,50.60
2018-02-14T07:33:11.257Z,50.91
2018-02-14T07:34:11.223Z,50.96
2018-02-14T07:35:11.198Z,51.01
2018-02-14T07:36:11.151Z,51.29
2018-02-14T07:37:11.127Z,51.29
2018-02-14T07:38:11.086Z,51.49
2018-02-14T07:39:11.052Z,51.45
2018-02-14T07:40:11.014Z,51.62
2018-02-14T07:41:10.982Z,51.72
2018-02-14T07:42:10.960Z,51.53
2018-02-14T07:43:10.914Z,51.61
2018-02-14T07:44:10.884Z,51.78
2018-02-14T07:45:10.868Z,51.99
2018-02-14T07:46:10.811Z,52.16
2018-02-14T07:47:10.823Z,52.34
2018-02-14T07:48:10.741Z,51.99
2018-02-14T07:49:10.709Z,52.28
2018-02-14T07:50:10.678Z,52.28
2018-02-14T07:51:10.643Z,52.35
2018-02-14T07:52:10.607Z,52.50
2018-02-14T07:53:10.574Z,52.25
2018-02-14T07:54:10.543Z,52.39
2018-02-14T07:55:10.509Z,52.44
2018-02-14T07:56:10.486Z,52.54
2018-02-14T07:57:10.443Z,52.54
2018-02-14T07:58:10.408Z,52.64
2018-02-14T07:59:10.387Z,52.28
2018-02-14T08:00:10.344Z,51.81
2018-02-14T08:01:10.306Z,51.52
2018-02-14T08:02:10.276Z,51.55
2018-02-14T08:03:10.243Z,51.30
2018-02-14T08:04:10.202Z,50.96
2018-02-14T08:05:10.170Z,50.43
2018-02-14T08:06:10.141Z,49.21
2018-02-14T08:07:10.102Z,48.55
2018-02-14T08:08:10.071Z,47.91
2018-02-14T08:09:10.096Z,47.85
2018-02-14T08:10:10.005Z,47.37
2018-02-14T08:11:09.980Z,47.29
2018-02-14T08:12:09.942Z,47.12
2018-02-14T08:13:09.906Z,46.70
2018-02-14T08:14:09.867Z,46.60
2018-02-14T08:15:09.844Z,46.62
2018-02-14T08:16:09.807Z,46.40
2018-02-14T08:17:09.783Z,45.99
2018-02-14T08:18:09.744Z,45.99
2018-02-14T08:19:09.712Z,45.68
2018-02-14T08:20:09.675Z,45.72
2018-02-14T08:21:09.654Z,45.45
2018-02-14T08:22:09.610Z,45.27
2018-02-14T08:23:09.581Z,45.31
2018-02-14T08:24:09.547Z,45.15
2018-02-14T08:25:09.518Z,44.97
2018-02-14T08:26:09.522Z,44.94
2018-02-14T08:27:09.448Z,44.50
2018-02-14T08:28:09.417Z,44.61
2018-02-14T08:29:09.389Z,44.61
2018-02-14T08:30:09.357Z,44.62
2018-02-14T08:31:09.322Z,44.34
2018-02-14T08:32:09.290Z,44.21
2018-02-14T08:33:09.258Z,44.18
2018-02-14T08:34:09.231Z,43.98
2018-02-14T08:35:09.194Z,43.98
2018-02-14T08:36:09.163Z,43.93
2018-02-14T08:37:09.145Z,43.72
2018-02-14T08:38:09.099Z,43.70
2018-02-14T08:39:09.070Z,43.57
2018-02-14T08:40:09.035Z,43.44
2018-02-14T08:41:09.004Z,43.33
2018-02-14T08:42:08.971Z,43.30
2018-02-14T08:43:08.941Z,43.24
2018-02-14T08:44:08.913Z,43.26
2018-02-14T08:45:08.880Z,43.11
2018-02-14T08:46:08.858Z,43.10
2018-02-14T08:47:08.818Z,43.02
2018-02-14T08:48:08.785Z,43.06
2018-02-14T08:49:08.756Z,43.03
2018-02-14T08:50:08.726Z,42.94
2018-02-14T08:51:08.705Z,42.76
2018-02-14T08:52:08.657Z,42.80
2018-02-14T08:53:08.635Z,42.84
2018-02-14T08:54:08.605Z,42.82
2018-02-14T08:55:08.570Z,42.62
2018-02-14T08:56:08.537Z,42.67
2018-02-14T08:57:08.509Z,42.48
2018-02-14T08:58:08.480Z,42.45
2018-02-14T08:59:08.735Z,42.60
2018-02-14T09:00:08.416Z,42.67
2018-02-14T09:01:08.394Z,42.49
2018-02-14T09:02:08.358Z,42.54
2018-02-14T09:03:08.318Z,42.23
2018-02-14T09:04:08.303Z,42.12
2018-02-14T09:05:08.264Z,42.14
2018-02-14T09:06:08.234Z,42.12
2018-02-14T09:07:08.207Z,42.08
2018-02-14T09:08:08.168Z,42.05
2018-02-14T09:09:08.139Z,42.05
2018-02-14T09:10:08.202Z,41.89
2018-02-14T09:11:08.078Z,41.76
2018-02-14T09:12:08.051Z,41.67
2018-02-14T09:13:08.022Z,41.77
2018-02-14T09:14:07.983Z,41.67
2018-02-14T09:15:07.986Z,41.76
2018-02-14T09:16:07.926Z,41.67
2018-02-14T09:17:07.899Z,41.50
2018-02-14T09:18:07.878Z,41.47
2018-02-14T09:19:07.836Z,41.25
2018-02-14T09:20:07.814Z,41.35
2018-02-14T09:21:08.078Z,41.21
2018-02-14T09:22:07.742Z,41.12
2018-02-14T09:23:07.722Z,41.23
2018-02-14T09:24:07.691Z,41.13
2018-02-14T09:25:07.691Z,41.26
2018-02-14T09:26:07.625Z,41.14
2018-02-14T09:27:07.600Z,41.10
2018-02-14T09:28:07.563Z,41.01
2018-02-14T09:29:07.538Z,40.95
2018-02-14T09:30:07.507Z,40.85
2018-02-14T09:31:07.579Z,40.80
2018-02-14T09:32:07.445Z,40.91
2018-02-14T09:33:07.431Z,40.85
2018-02-14T09:34:07.383Z,40.91
2018-02-14T09:35:07.357Z,40.88
2018-02-14T09:36:07.322Z,40.72
2018-02-14T09:37:07.297Z,40.72
2018-02-14T09:38:07.264Z,40.78
2018-02-14T09:39:07.236Z,40.64
2018-02-14T09:40:07.202Z,40.64
2018-02-14T09:41:07.177Z,40.46
2018-02-14T09:42:07.152Z,40.38
2018-02-14T09:43:07.119Z,40.26
2018-02-14T09:44:07.085Z,40.22
2018-02-14T09:45:07.056Z,40.26
2018-02-14T09:46:07.029Z,40.31
2018-02-14T09:47:07.019Z,40.15
2018-02-14T09:48:06.968Z,40.29
2018-02-14T09:49:06.944Z,40.26
2018-02-14T09:50:06.911Z,40.31
2018-02-14T09:51:06.881Z,40.34
2018-02-14T09:52:06.852Z,40.18
2018-02-14T09:53:06.821Z,40.06
2018-02-14T09:54:06.789Z,39.96
2018-02-14T09:55:06.763Z,39.94
2018-02-14T09:56:06.733Z,39.92
2018-02-14T09:57:06.750Z,39.85
2018-02-14T09:58:06.680Z,39.94
2018-02-14T09:59:06.645Z,39.76
2018-02-14T10:00:06.647Z,39.81
2018-02-14T10:01:06.579Z,39.87
2018-02-14T10:02:06.569Z,39.90
2018-02-14T10:03:06.528Z,39.90
2018-02-14T10:04:06.494Z,39.81
2018-02-14T10:05:06.469Z,39.82
2018-02-14T10:06:06.439Z,39.73
2018-02-14T10:07:06.410Z,39.72
2018-02-14T10:08:06.379Z,39.70
2018-02-14T10:09:06.357Z,39.65
2018-02-14T10:10:06.328Z,39.56
2018-02-14T10:11:06.336Z,39.51
2018-02-14T10:12:06.281Z,39.31
2018-02-14T10:13:06.239Z,39.34
2018-02-14T10:14:06.206Z,39.38
2018-02-14T10:15:06.182Z,39.48
2018-02-14T10:16:06.152Z,39.57
2018-02-14T10:17:06.123Z,39.53
2018-02-14T10:18:06.096Z,39.34
2018-02-14T10:19:06.062Z,39.20
2018-02-14T10:20:06.034Z,39.38
2018-02-14T10:21:06.006Z,39.41
2018-02-14T10:22:05.976Z,39.51
2018-02-14T10:23:05.953Z,39.61
2018-02-14T10:24:05.915Z,39.51
2018-02-14T10:25:05.891Z,39.47
2018-02-14T10:26:05.867Z,39.53
2018-02-14T10:27:05.829Z,39.63
2018-02-14T10:28:05.815Z,39.39
2018-02-14T10:29:05.783Z,39.41
2018-02-14T10:30:05.743Z,39.22
2018-02-14T10:31:05.724Z,39.28
2018-02-14T10:32:05.703Z,39.13
2018-02-14T10:33:05.662Z,39.07
2018-02-14T10:34:05.645Z,39.13
2018-02-14T10:35:05.633Z,39.20
2018-02-14T10:36:05.584Z,38.97
2018-02-14T10:37:05.548Z,38.97
2018-02-14T10:38:06.060Z,38.87
2018-02-14T10:39:05.510Z,38.82
2018-02-14T10:40:05.476Z,38.77
2018-02-14T10:41:05.562Z,38.87
2018-02-14T10:42:05.406Z,38.89
2018-02-14T10:43:05.376Z,38.82
2018-02-14T10:44:05.351Z,38.90
2018-02-14T10:45:05.613Z,38.84
2018-02-14T10:46:05.290Z,38.78
2018-02-14T10:47:05.267Z,38.56
2018-02-14T10:48:05.241Z,38.68
2018-02-14T10:49:05.393Z,38.79
2018-02-14T10:50:05.183Z,38.70
2018-02-14T10:51:05.152Z,38.59
2018-02-14T10:52:05.128Z,38.62
2018-02-14T10:53:05.108Z,38.43
2018-02-14T10:54:06.070Z,38.52
2018-02-14T10:55:05.049Z,38.59
2018-02-14T10:56:05.013Z,38.58
2018-02-14T10:57:05.222Z,38.50
2018-02-14T10:58:04.971Z,38.68
2018-02-14T10:59:04.929Z,38.50
2018-02-14T11:00:04.902Z,38.44
2018-02-14T11:01:04.880Z,38.44
2018-02-14T11:02:04.851Z,38.60
2018-02-14T11:03:04.832Z,38.63
2018-02-14T11:04:04.791Z,38.55
2018-02-14T11:05:04.766Z,38.68
2018-02-14T11:06:04.735Z,38.49
2018-02-14T11:07:04.712Z,38.34
2018-02-14T11:08:04.677Z,38.22
2018-02-14T11:09:04.650Z,38.36
2018-02-14T11:10:04.620Z,38.33
2018-02-14T11:11:04.611Z,38.25
2018-02-14T11:12:04.567Z,38.36
2018-02-14T11:13:04.537Z,38.33
2018-02-14T11:14:04.515Z,38.25
2018-02-14T11:15:04.479Z,38.26
2018-02-14T11:16:04.455Z,38.30
2018-02-14T11:17:04.432Z,38.15
2018-02-14T11:18:04.397Z,38.14
2018-02-14T11:19:04.373Z,38.07
2018-02-14T11:20:04.344Z,38.02
2018-02-14T11:21:04.314Z,37.95
2018-02-14T11:22:04.294Z,37.99
2018-02-14T11:23:04.270Z,37.96
2018-02-14T11:24:04.237Z,37.96
2018-02-14T11:25:04.206Z,38.00
2018-02-14T11:26:04.190Z,37.90
2018-02-14T11:27:04.149Z,37.82
2018-02-14T11:28:04.124Z,37.96
2018-02-14T11:29:04.109Z,37.90
2018-02-14T11:30:04.063Z,37.95
2018-02-14T11:31:04.043Z,37.84
2018-02-14T11:32:04.016Z,37.91
2018-02-14T11:33:03.991Z,37.81
2018-02-14T11:34:03.961Z,37.80
2018-02-14T11:35:03.933Z,37.77
2018-02-14T11:36:03.899Z,37.84
2018-02-14T11:37:03.905Z,37.69
2018-02-14T11:38:03.854Z,37.88
2018-02-14T11:39:03.826Z,37.90
2018-02-14T11:40:03.807Z,37.87
2018-02-14T11:41:03.769Z,37.75
2018-02-14T11:42:03.736Z,37.66
2018-02-14T11:43:03.715Z,37.47
2018-02-14T11:44:03.733Z,37.49
2018-02-14T11:45:03.751Z,37.50
2018-02-14T11:46:03.628Z,37.59
2018-02-14T11:47:03.605Z,37.53
2018-02-14T11:48:03.575Z,37.35
2018-02-14T11:49:03.546Z,37.38
2018-02-14T11:50:03.523Z,37.45
2018-02-14T11:51:03.516Z,37.46
2018-02-14T11:52:03.473Z,37.42
2018-02-14T11:53:03.444Z,37.34
2018-02-14T11:54:03.418Z,37.28
2018-02-14T11:55:03.400Z,37.34
2018-02-14T11:56:03.358Z,37.24
2018-02-14T11:57:03.328Z,37.27
2018-02-14T11:58:03.303Z,37.21
2018-02-14T11:59:03.280Z,37.16
2018-02-14T12:00:03.252Z,37.27
2018-02-14T12:01:03.223Z,37.12
2018-02-14T12:02:03.195Z,37.20
2018-02-14T12:03:03.170Z,37.04
2018-02-14T12:04:03.142Z,36.96
2018-02-14T12:05:03.113Z,37.15
2018-02-14T12:06:03.086Z,37.15
2018-02-14T12:07:03.058Z,37.09
2018-02-14T12:08:03.060Z,37.04
2018-02-14T12:09:03.002Z,37.15
2018-02-14T12:10:02.987Z,37.23
2018-02-14T12:11:02.955Z,37.28
2018-02-14T12:12:02.939Z,37.04
2018-02-14T12:13:02.909Z,37.16
2018-02-14T12:14:02.869Z,37.20
2018-02-14T12:15:02.840Z,37.04
2018-02-14T12:16:02.815Z,37.06
2018-02-14T12:17:02.800Z,37.18
2018-02-14T12:18:02.759Z,37.21
2018-02-14T12:19:02.732Z,37.15
2018-02-14T12:20:02.706Z,37.23
2018-02-14T12:21:02.672Z,37.27
2018-02-14T12:22:02.649Z,37.20
2018-02-14T12:23:02.621Z,37.31
2018-02-14T12:24:02.595Z,37.20
2018-02-14T12:25:02.566Z,37.06
2018-02-14T12:26:02.561Z,37.01
2018-02-14T12:27:02.519Z,37.04
2018-02-14T12:28:02.482Z,37.01
2018-02-14T12:29:02.461Z,37.05
2018-02-14T12:30:02.425Z,37.05
2018-02-14T12:31:02.401Z,37.06
2018-02-14T12:32:02.377Z,36.99
2018-02-14T12:33:02.346Z,37.13
2018-02-14T12:34:02.322Z,37.08
2018-02-14T12:35:02.303Z,37.09
2018-02-14T12:36:02.267Z,37.11
2018-02-14T12:37:02.239Z,37.06
2018-02-14T12:38:02.217Z,36.90
2018-02-14T12:39:02.188Z,37.15
2018-02-14T12:40:02.161Z,37.08
2018-02-14T12:41:02.136Z,36.90
2018-02-14T12:42:02.110Z,36.79
2018-02-14T12:43:02.090Z,36.86
2018-02-14T12:44:02.054Z,36.71
2018-02-14T12:45:02.026Z,36.69
2018-02-14T12:46:01.997Z,36.69
2018-02-14T12:47:01.974Z,36.83
2018-02-14T12:48:01.954Z,36.89
2018-02-14T12:49:01.912Z,36.68
2018-02-14T12:50:01.893Z,36.44
2018-02-14T12:51:01.862Z,36.64
2018-02-14T12:52:01.834Z,36.50